sensor_id;sensor_type;location;lat;lon;timestamp;P1;durP1;ratioP1;P2;durP2;ratioP2
4889;SDS011;2459;42.268;23.112;2022-07-01T00:00:17;12.33;;;6.20;;
4889;SDS011;2459;42.268;23.112;2022-07-01T00:02:44;9.57;;;4.87;;
4889;SDS011;2459;42.268;23.112;2022-07-01T00:05:10;19.50;;;4.77;;
4889;SDS011;2459;42.268;23.112;2022-07-01T00:07:37;9.83;;;5.53;;
4889;SDS011;2459;42.268;23.112;2022-07-01T00:10:05;18.53;;;6.67;;
4889;SDS011;2459;42.268;23.112;2022-07-01T00:12:32;5.90;;;5.07;;
4889;SDS011;2459;42.268;23.112;2022-07-01T00:14:58;13.10;;;6.00;;
4889;SDS011;2459;42.268;23.112;2022-07-01T00:17:25;12.00;;;7.17;;
4889;SDS011;2459;42.268;23.112;2022-07-01T00:19:51;8.40;;;4.70;;
4889;SDS011;2459;42.268;23.112;2022-07-01T00:22:18;6.27;;;5.63;;
4889;SDS011;2459;42.268;23.112;2022-07-01T00:24:44;5.53;;;4.87;;
4889;SDS011;2459;42.268;23.112;2022-07-01T00:27:15;7.53;;;5.43;;
4889;SDS011;2459;42.268;23.112;2022-07-01T00:29:41;11.17;;;6.50;;
4889;SDS011;2459;42.268;23.112;2022-07-01T00:32:08;5.10;;;4.60;;
4889;SDS011;2459;42.268;23.112;2022-07-01T00:34:35;13.87;;;5.20;;
4889;SDS011;2459;42.268;23.112;2022-07-01T00:37:02;10.57;;;6.17;;
4889;SDS011;2459;42.268;23.112;2022-07-01T00:39:28;10.43;;;5.20;;
4889;SDS011;2459;42.268;23.112;2022-07-01T00:41:57;7.27;;;5.57;;
4889;SDS011;2459;42.268;23.112;2022-07-01T00:44:26;11.20;;;5.40;;
4889;SDS011;2459;42.268;23.112;2022-07-01T00:46:53;16.80;;;6.20;;
4889;SDS011;2459;42.268;23.112;2022-07-01T00:49:19;33.97;;;7.70;;
4889;SDS011;2459;42.268;23.112;2022-07-01T00:51:46;7.83;;;5.83;;
4889;SDS011;2459;42.268;23.112;2022-07-01T00:54:13;15.00;;;5.90;;
4889;SDS011;2459;42.268;23.112;2022-07-01T00:56:40;10.70;;;6.43;;
4889;SDS011;2459;42.268;23.112;2022-07-01T00:59:06;9.00;;;5.53;;
4889;SDS011;2459;42.268;23.112;2022-07-01T01:01:34;9.70;;;6.50;;
4889;SDS011;2459;42.268;23.112;2022-07-01T01:04:01;9.37;;;5.33;;
4889;SDS011;2459;42.268;23.112;2022-07-01T01:06:27;8.87;;;5.63;;
4889;SDS011;2459;42.268;23.112;2022-07-01T01:08:54;11.53;;;5.80;;
4889;SDS011;2459;42.268;23.112;2022-07-01T01:11:21;8.30;;;6.30;;
4889;SDS011;2459;42.268;23.112;2022-07-01T01:13:47;18.27;;;6.50;;
4889;SDS011;2459;42.268;23.112;2022-07-01T01:16:17;21.90;;;6.50;;
4889;SDS011;2459;42.268;23.112;2022-07-01T01:18:45;13.83;;;5.53;;
4889;SDS011;2459;42.268;23.112;2022-07-01T01:21:13;7.63;;;6.00;;
4889;SDS011;2459;42.268;23.112;2022-07-01T01:23:40;7.50;;;5.57;;
4889;SDS011;2459;42.268;23.112;2022-07-01T01:26:14;11.17;;;6.10;;
4889;SDS011;2459;42.268;23.112;2022-07-01T01:28:41;9.00;;;6.40;;
4889;SDS011;2459;42.268;23.112;2022-07-01T01:31:07;14.50;;;6.40;;
4889;SDS011;2459;42.268;23.112;2022-07-01T01:33:34;9.57;;;5.33;;
4889;SDS011;2459;42.268;23.112;2022-07-01T01:36:00;7.70;;;5.70;;
4889;SDS011;2459;42.268;23.112;2022-07-01T01:38:28;9.10;;;6.07;;
4889;SDS011;2459;42.268;23.112;2022-07-01T01:40:55;10.97;;;6.70;;
4889;SDS011;2459;42.268;23.112;2022-07-01T01:43:22;12.73;;;6.07;;
4889;SDS011;2459;42.268;23.112;2022-07-01T01:45:49;11.27;;;5.50;;
4889;SDS011;2459;42.268;23.112;2022-07-01T01:48:15;15.53;;;7.23;;
4889;SDS011;2459;42.268;23.112;2022-07-01T01:50:42;6.23;;;5.57;;
4889;SDS011;2459;42.268;23.112;2022-07-01T01:53:08;9.70;;;6.47;;
4889;SDS011;2459;42.268;23.112;2022-07-01T01:55:36;6.97;;;5.83;;
4889;SDS011;2459;42.268;23.112;2022-07-01T01:58:02;12.80;;;5.80;;
4889;SDS011;2459;42.268;23.112;2022-07-01T02:00:29;12.03;;;6.10;;
4889;SDS011;2459;42.268;23.112;2022-07-01T02:02:55;9.10;;;6.80;;
4889;SDS011;2459;42.268;23.112;2022-07-01T02:05:22;8.47;;;6.47;;
4889;SDS011;2459;42.268;23.112;2022-07-01T02:07:48;16.10;;;6.30;;
4889;SDS011;2459;42.268;23.112;2022-07-01T02:10:15;5.30;;;4.80;;
4889;SDS011;2459;42.268;23.112;2022-07-01T02:12:43;8.83;;;5.40;;
4889;SDS011;2459;42.268;23.112;2022-07-01T02:15:10;8.33;;;6.80;;
4889;SDS011;2459;42.268;23.112;2022-07-01T02:17:36;8.13;;;5.83;;
4889;SDS011;2459;42.268;23.112;2022-07-01T02:20:03;42.23;;;8.40;;
4889;SDS011;2459;42.268;23.112;2022-07-01T02:22:30;20.33;;;5.70;;
4889;SDS011;2459;42.268;23.112;2022-07-01T02:24:56;14.93;;;5.60;;
4889;SDS011;2459;42.268;23.112;2022-07-01T02:27:23;14.30;;;6.27;;
4889;SDS011;2459;42.268;23.112;2022-07-01T02:29:51;10.43;;;6.80;;
4889;SDS011;2459;42.268;23.112;2022-07-01T02:32:18;6.73;;;5.50;;
4889;SDS011;2459;42.268;23.112;2022-07-01T02:34:45;8.87;;;6.47;;
4889;SDS011;2459;42.268;23.112;2022-07-01T02:37:11;16.57;;;5.97;;
4889;SDS011;2459;42.268;23.112;2022-07-01T02:39:38;12.63;;;6.23;;
4889;SDS011;2459;42.268;23.112;2022-07-01T02:42:04;10.27;;;6.30;;
4889;SDS011;2459;42.268;23.112;2022-07-01T02:44:52;10.33;;;6.23;;
4889;SDS011;2459;42.268;23.112;2022-07-01T02:47:19;9.40;;;6.20;;
4889;SDS011;2459;42.268;23.112;2022-07-01T02:49:46;7.40;;;5.57;;
4889;SDS011;2459;42.268;23.112;2022-07-01T02:52:12;20.93;;;7.77;;
4889;SDS011;2459;42.268;23.112;2022-07-01T02:54:40;10.00;;;6.50;;
4889;SDS011;2459;42.268;23.112;2022-07-01T02:57:07;9.40;;;6.53;;
4889;SDS011;2459;42.268;23.112;2022-07-01T02:59:34;26.83;;;8.10;;
4889;SDS011;2459;42.268;23.112;2022-07-01T03:02:02;7.93;;;5.77;;
4889;SDS011;2459;42.268;23.112;2022-07-01T03:04:28;8.80;;;6.40;;
4889;SDS011;2459;42.268;23.112;2022-07-01T03:06:55;9.60;;;5.80;;
4889;SDS011;2459;42.268;23.112;2022-07-01T03:09:22;8.03;;;6.33;;
4889;SDS011;2459;42.268;23.112;2022-07-01T03:11:48;10.07;;;6.57;;
4889;SDS011;2459;42.268;23.112;2022-07-01T03:14:15;11.40;;;5.97;;
4889;SDS011;2459;42.268;23.112;2022-07-01T03:16:41;14.03;;;6.90;;
4889;SDS011;2459;42.268;23.112;2022-07-01T03:19:09;13.13;;;7.00;;
4889;SDS011;2459;42.268;23.112;2022-07-01T03:21:36;25.57;;;7.30;;
4889;SDS011;2459;42.268;23.112;2022-07-01T03:24:02;8.90;;;6.53;;
4889;SDS011;2459;42.268;23.112;2022-07-01T03:26:29;10.03;;;7.20;;
4889;SDS011;2459;42.268;23.112;2022-07-01T03:28:55;24.53;;;7.03;;
4889;SDS011;2459;42.268;23.112;2022-07-01T03:31:22;17.37;;;6.90;;
4889;SDS011;2459;42.268;23.112;2022-07-01T03:33:48;22.53;;;7.50;;
4889;SDS011;2459;42.268;23.112;2022-07-01T03:36:16;25.83;;;5.60;;
4889;SDS011;2459;42.268;23.112;2022-07-01T03:38:43;18.03;;;6.50;;
4889;SDS011;2459;42.268;23.112;2022-07-01T03:41:10;31.07;;;7.73;;
4889;SDS011;2459;42.268;23.112;2022-07-01T03:43:36;9.37;;;6.73;;
4889;SDS011;2459;42.268;23.112;2022-07-01T03:46:03;25.70;;;7.10;;
4889;SDS011;2459;42.268;23.112;2022-07-01T03:48:29;19.80;;;8.57;;
4889;SDS011;2459;42.268;23.112;2022-07-01T03:50:56;23.07;;;8.00;;
4889;SDS011;2459;42.268;23.112;2022-07-01T03:53:24;23.03;;;7.73;;
4889;SDS011;2459;42.268;23.112;2022-07-01T03:56:08;33.97;;;8.63;;
4889;SDS011;2459;42.268;23.112;2022-07-01T03:58:34;15.70;;;6.27;;
4889;SDS011;2459;42.268;23.112;2022-07-01T04:01:01;16.43;;;6.93;;
4889;SDS011;2459;42.268;23.112;2022-07-01T04:03:27;15.53;;;6.20;;
4889;SDS011;2459;42.268;23.112;2022-07-01T04:05:54;11.30;;;5.80;;
4889;SDS011;2459;42.268;23.112;2022-07-01T04:08:20;9.13;;;6.80;;
4889;SDS011;2459;42.268;23.112;2022-07-01T04:10:48;18.93;;;6.17;;
4889;SDS011;2459;42.268;23.112;2022-07-01T04:13:18;24.93;;;6.73;;
4889;SDS011;2459;42.268;23.112;2022-07-01T04:15:45;10.13;;;5.77;;
4889;SDS011;2459;42.268;23.112;2022-07-01T04:18:12;18.43;;;6.50;;
4889;SDS011;2459;42.268;23.112;2022-07-01T04:20:39;12.27;;;6.00;;
4889;SDS011;2459;42.268;23.112;2022-07-01T04:23:05;15.00;;;6.33;;
4889;SDS011;2459;42.268;23.112;2022-07-01T04:25:31;22.20;;;7.10;;
4889;SDS011;2459;42.268;23.112;2022-07-01T04:27:59;10.20;;;5.93;;
4889;SDS011;2459;42.268;23.112;2022-07-01T04:30:27;20.87;;;6.60;;
4889;SDS011;2459;42.268;23.112;2022-07-01T04:32:53;10.27;;;6.70;;
4889;SDS011;2459;42.268;23.112;2022-07-01T04:35:20;11.70;;;5.53;;
4889;SDS011;2459;42.268;23.112;2022-07-01T04:37:46;43.37;;;7.70;;
4889;SDS011;2459;42.268;23.112;2022-07-01T04:40:13;13.70;;;5.77;;
4889;SDS011;2459;42.268;23.112;2022-07-01T04:42:39;14.60;;;6.60;;
4889;SDS011;2459;42.268;23.112;2022-07-01T04:45:06;13.77;;;5.50;;
4889;SDS011;2459;42.268;23.112;2022-07-01T04:47:35;12.10;;;6.10;;
4889;SDS011;2459;42.268;23.112;2022-07-01T04:50:01;15.23;;;5.77;;
4889;SDS011;2459;42.268;23.112;2022-07-01T04:52:28;24.87;;;6.63;;
4889;SDS011;2459;42.268;23.112;2022-07-01T04:54:54;7.50;;;5.13;;
4889;SDS011;2459;42.268;23.112;2022-07-01T04:57:21;19.27;;;6.23;;
4889;SDS011;2459;42.268;23.112;2022-07-01T04:59:47;15.67;;;6.20;;
4889;SDS011;2459;42.268;23.112;2022-07-01T05:02:15;12.60;;;5.80;;
4889;SDS011;2459;42.268;23.112;2022-07-01T05:04:42;14.50;;;6.07;;
4889;SDS011;2459;42.268;23.112;2022-07-01T05:07:08;15.23;;;6.13;;
4889;SDS011;2459;42.268;23.112;2022-07-01T05:09:53;9.03;;;5.83;;
4889;SDS011;2459;42.268;23.112;2022-07-01T05:12:24;14.20;;;6.63;;
4889;SDS011;2459;42.268;23.112;2022-07-01T05:14:50;20.80;;;6.87;;
4889;SDS011;2459;42.268;23.112;2022-07-01T05:17:18;17.07;;;6.33;;
4889;SDS011;2459;42.268;23.112;2022-07-01T05:19:45;15.65;;;6.88;;
4889;SDS011;2459;42.268;23.112;2022-07-01T05:22:29;17.77;;;6.57;;
4889;SDS011;2459;42.268;23.112;2022-07-01T05:24:55;14.73;;;5.95;;
4889;SDS011;2459;42.268;23.112;2022-07-01T05:27:21;23.35;;;7.18;;
4889;SDS011;2459;42.268;23.112;2022-07-01T05:29:49;10.43;;;6.93;;
4889;SDS011;2459;42.268;23.112;2022-07-01T05:32:18;22.92;;;6.75;;
4889;SDS011;2459;42.268;23.112;2022-07-01T05:34:45;9.20;;;5.18;;
4889;SDS011;2459;42.268;23.112;2022-07-01T05:37:11;10.88;;;4.93;;
4889;SDS011;2459;42.268;23.112;2022-07-01T05:39:38;7.07;;;4.72;;
4889;SDS011;2459;42.268;23.112;2022-07-01T05:42:05;10.00;;;5.25;;
4889;SDS011;2459;42.268;23.112;2022-07-01T05:44:31;14.43;;;5.75;;
4889;SDS011;2459;42.268;23.112;2022-07-01T05:46:58;16.65;;;5.80;;
4889;SDS011;2459;42.268;23.112;2022-07-01T05:49:26;18.00;;;6.72;;
4889;SDS011;2459;42.268;23.112;2022-07-01T05:51:52;11.52;;;6.60;;
4889;SDS011;2459;42.268;23.112;2022-07-01T05:54:19;11.13;;;5.65;;
4889;SDS011;2459;42.268;23.112;2022-07-01T05:56:45;16.42;;;6.10;;
4889;SDS011;2459;42.268;23.112;2022-07-01T05:59:12;19.08;;;6.55;;
4889;SDS011;2459;42.268;23.112;2022-07-01T06:01:39;9.38;;;5.28;;
4889;SDS011;2459;42.268;23.112;2022-07-01T06:04:05;14.90;;;5.93;;
4889;SDS011;2459;42.268;23.112;2022-07-01T06:06:33;13.57;;;6.30;;
4889;SDS011;2459;42.268;23.112;2022-07-01T06:09:00;9.98;;;5.40;;
4889;SDS011;2459;42.268;23.112;2022-07-01T06:11:26;20.02;;;5.20;;
4889;SDS011;2459;42.268;23.112;2022-07-01T06:13:53;7.38;;;5.45;;
4889;SDS011;2459;42.268;23.112;2022-07-01T06:16:19;10.98;;;5.30;;
4889;SDS011;2459;42.268;23.112;2022-07-01T06:18:46;16.13;;;5.78;;
4889;SDS011;2459;42.268;23.112;2022-07-01T06:21:12;12.77;;;5.22;;
4889;SDS011;2459;42.268;23.112;2022-07-01T06:23:41;12.95;;;5.60;;
4889;SDS011;2459;42.268;23.112;2022-07-01T06:26:08;8.93;;;5.47;;
4889;SDS011;2459;42.268;23.112;2022-07-01T06:28:35;8.45;;;4.70;;
4889;SDS011;2459;42.268;23.112;2022-07-01T06:31:01;16.33;;;4.85;;
4889;SDS011;2459;42.268;23.112;2022-07-01T06:33:28;9.77;;;5.68;;
4889;SDS011;2459;42.268;23.112;2022-07-01T06:35:56;9.68;;;5.20;;
4889;SDS011;2459;42.268;23.112;2022-07-01T06:38:22;9.45;;;5.25;;
4889;SDS011;2459;42.268;23.112;2022-07-01T06:40:50;14.73;;;6.72;;
4889;SDS011;2459;42.268;23.112;2022-07-01T06:43:31;13.02;;;5.32;;
4889;SDS011;2459;42.268;23.112;2022-07-01T06:45:57;14.73;;;5.03;;
4889;SDS011;2459;42.268;23.112;2022-07-01T06:48:24;13.98;;;4.63;;
4889;SDS011;2459;42.268;23.112;2022-07-01T06:50:50;12.60;;;9.35;;
4889;SDS011;2459;42.268;23.112;2022-07-01T06:53:17;14.85;;;4.38;;
4889;SDS011;2459;42.268;23.112;2022-07-01T06:55:43;12.45;;;4.80;;
4889;SDS011;2459;42.268;23.112;2022-07-01T06:58:11;10.82;;;4.70;;
4889;SDS011;2459;42.268;23.112;2022-07-01T07:00:37;12.73;;;4.00;;
4889;SDS011;2459;42.268;23.112;2022-07-01T07:03:04;11.32;;;4.80;;
4889;SDS011;2459;42.268;23.112;2022-07-01T07:05:30;21.60;;;5.13;;
4889;SDS011;2459;42.268;23.112;2022-07-01T07:07:57;12.38;;;4.93;;
4889;SDS011;2459;42.268;23.112;2022-07-01T07:10:24;10.73;;;4.30;;
4889;SDS011;2459;42.268;23.112;2022-07-01T07:12:51;22.67;;;5.28;;
4889;SDS011;2459;42.268;23.112;2022-07-01T07:15:18;9.73;;;4.63;;
4889;SDS011;2459;42.268;23.112;2022-07-01T07:17:45;11.32;;;4.20;;
4889;SDS011;2459;42.268;23.112;2022-07-01T07:20:12;10.02;;;4.93;;
4889;SDS011;2459;42.268;23.112;2022-07-01T07:22:38;10.20;;;4.50;;
4889;SDS011;2459;42.268;23.112;2022-07-01T07:25:05;7.75;;;4.60;;
4889;SDS011;2459;42.268;23.112;2022-07-01T07:27:32;10.25;;;4.50;;
4889;SDS011;2459;42.268;23.112;2022-07-01T07:29:58;12.90;;;4.75;;
4889;SDS011;2459;42.268;23.112;2022-07-01T07:32:26;12.77;;;4.80;;
4889;SDS011;2459;42.268;23.112;2022-07-01T07:34:53;14.65;;;4.93;;
4889;SDS011;2459;42.268;23.112;2022-07-01T07:37:19;10.27;;;5.60;;
4889;SDS011;2459;42.268;23.112;2022-07-01T07:39:46;8.75;;;4.93;;
4889;SDS011;2459;42.268;23.112;2022-07-01T07:42:12;16.38;;;5.00;;
4889;SDS011;2459;42.268;23.112;2022-07-01T07:44:39;9.60;;;5.28;;
4889;SDS011;2459;42.268;23.112;2022-07-01T07:47:05;19.58;;;4.78;;
4889;SDS011;2459;42.268;23.112;2022-07-01T07:49:33;7.40;;;4.80;;
4889;SDS011;2459;42.268;23.112;2022-07-01T07:52:00;4.93;;;4.32;;
4889;SDS011;2459;42.268;23.112;2022-07-01T07:54:26;6.65;;;3.67;;
4889;SDS011;2459;42.268;23.112;2022-07-01T07:56:52;19.40;;;7.10;;
4889;SDS011;2459;42.268;23.112;2022-07-01T07:59:19;10.48;;;4.07;;
4889;SDS011;2459;42.268;23.112;2022-07-01T08:01:46;6.10;;;4.43;;
4889;SDS011;2459;42.268;23.112;2022-07-01T08:04:12;4.18;;;2.85;;
4889;SDS011;2459;42.268;23.112;2022-07-01T08:06:40;7.22;;;3.42;;
4889;SDS011;2459;42.268;23.112;2022-07-01T08:09:06;8.18;;;2.63;;
4889;SDS011;2459;42.268;23.112;2022-07-01T08:11:33;7.35;;;4.30;;
4889;SDS011;2459;42.268;23.112;2022-07-01T08:13:59;3.75;;;3.42;;
4889;SDS011;2459;42.268;23.112;2022-07-01T08:16:26;18.48;;;4.28;;
4889;SDS011;2459;42.268;23.112;2022-07-01T08:18:53;9.40;;;3.30;;
4889;SDS011;2459;42.268;23.112;2022-07-01T08:21:19;11.93;;;6.47;;
4889;SDS011;2459;42.268;23.112;2022-07-01T08:23:47;7.13;;;3.30;;
4889;SDS011;2459;42.268;23.112;2022-07-01T08:26:14;10.20;;;3.63;;
4889;SDS011;2459;42.268;23.112;2022-07-01T08:28:42;5.95;;;3.28;;
4889;SDS011;2459;42.268;23.112;2022-07-01T08:31:08;8.38;;;2.80;;
4889;SDS011;2459;42.268;23.112;2022-07-01T08:33:35;3.83;;;3.22;;
4889;SDS011;2459;42.268;23.112;2022-07-01T08:36:02;5.60;;;3.53;;
4889;SDS011;2459;42.268;23.112;2022-07-01T08:38:29;7.03;;;3.03;;
4889;SDS011;2459;42.268;23.112;2022-07-01T08:40:57;4.50;;;3.08;;
4889;SDS011;2459;42.268;23.112;2022-07-01T08:43:24;15.90;;;4.03;;
4889;SDS011;2459;42.268;23.112;2022-07-01T08:45:51;9.65;;;4.03;;
4889;SDS011;2459;42.268;23.112;2022-07-01T08:48:17;16.15;;;4.30;;
4889;SDS011;2459;42.268;23.112;2022-07-01T08:50:45;10.20;;;4.20;;
4889;SDS011;2459;42.268;23.112;2022-07-01T08:53:12;14.40;;;4.47;;
4889;SDS011;2459;42.268;23.112;2022-07-01T08:55:39;15.48;;;4.55;;
4889;SDS011;2459;42.268;23.112;2022-07-01T08:58:20;10.80;;;5.03;;
4889;SDS011;2459;42.268;23.112;2022-07-01T09:00:47;9.43;;;4.53;;
4889;SDS011;2459;42.268;23.112;2022-07-01T09:03:14;11.07;;;4.22;;
4889;SDS011;2459;42.268;23.112;2022-07-01T09:05:40;15.00;;;4.20;;
4889;SDS011;2459;42.268;23.112;2022-07-01T09:08:13;15.50;;;4.90;;
4889;SDS011;2459;42.268;23.112;2022-07-01T09:10:40;22.13;;;4.85;;
4889;SDS011;2459;42.268;23.112;2022-07-01T09:13:07;19.70;;;4.60;;
4889;SDS011;2459;42.268;23.112;2022-07-01T09:15:35;19.58;;;4.95;;
4889;SDS011;2459;42.268;23.112;2022-07-01T09:18:03;11.20;;;4.70;;
4889;SDS011;2459;42.268;23.112;2022-07-01T09:20:30;9.85;;;4.63;;
4889;SDS011;2459;42.268;23.112;2022-07-01T09:23:01;15.88;;;4.95;;
4889;SDS011;2459;42.268;23.112;2022-07-01T09:25:31;26.02;;;6.20;;
4889;SDS011;2459;42.268;23.112;2022-07-01T09:28:08;22.80;;;4.80;;
4889;SDS011;2459;42.268;23.112;2022-07-01T09:30:39;25.27;;;5.82;;
4889;SDS011;2459;42.268;23.112;2022-07-01T09:33:09;22.83;;;5.78;;
4889;SDS011;2459;42.268;23.112;2022-07-01T09:35:36;9.70;;;5.05;;
4889;SDS011;2459;42.268;23.112;2022-07-01T09:38:03;22.02;;;4.57;;
4889;SDS011;2459;42.268;23.112;2022-07-01T09:40:50;27.73;;;5.03;;
4889;SDS011;2459;42.268;23.112;2022-07-01T09:43:17;18.63;;;6.25;;
4889;SDS011;2459;42.268;23.112;2022-07-01T09:45:53;13.52;;;4.40;;
4889;SDS011;2459;42.268;23.112;2022-07-01T09:48:20;7.55;;;3.33;;
4889;SDS011;2459;42.268;23.112;2022-07-01T09:50:46;14.48;;;4.43;;
4889;SDS011;2459;42.268;23.112;2022-07-01T09:53:13;14.73;;;4.70;;
4889;SDS011;2459;42.268;23.112;2022-07-01T09:55:40;15.45;;;4.20;;
4889;SDS011;2459;42.268;23.112;2022-07-01T09:58:06;9.48;;;5.05;;
4889;SDS011;2459;42.268;23.112;2022-07-01T10:00:34;8.52;;;3.58;;
4889;SDS011;2459;42.268;23.112;2022-07-01T10:03:03;9.93;;;3.83;;
4889;SDS011;2459;42.268;23.112;2022-07-01T10:05:31;14.63;;;3.65;;
4889;SDS011;2459;42.268;23.112;2022-07-01T10:08:02;17.30;;;3.45;;
4889;SDS011;2459;42.268;23.112;2022-07-01T10:10:38;3.22;;;2.58;;
4889;SDS011;2459;42.268;23.112;2022-07-01T10:13:07;7.70;;;2.58;;
4889;SDS011;2459;42.268;23.112;2022-07-01T10:15:34;10.52;;;2.70;;
4889;SDS011;2459;42.268;23.112;2022-07-01T10:18:03;8.00;;;3.67;;
4889;SDS011;2459;42.268;23.112;2022-07-01T10:20:29;4.95;;;2.75;;
4889;SDS011;2459;42.268;23.112;2022-07-01T10:23:00;3.40;;;2.60;;
4889;SDS011;2459;42.268;23.112;2022-07-01T10:25:30;4.68;;;2.30;;
4889;SDS011;2459;42.268;23.112;2022-07-01T10:28:12;7.72;;;3.05;;
4889;SDS011;2459;42.268;23.112;2022-07-01T10:30:48;5.30;;;2.33;;
4889;SDS011;2459;42.268;23.112;2022-07-01T10:33:27;3.80;;;2.60;;
4889;SDS011;2459;42.268;23.112;2022-07-01T10:35:53;6.35;;;2.80;;
4889;SDS011;2459;42.268;23.112;2022-07-01T10:38:20;6.00;;;3.50;;
4889;SDS011;2459;42.268;23.112;2022-07-01T10:40:47;2.78;;;2.58;;
4889;SDS011;2459;42.268;23.112;2022-07-01T10:43:15;5.15;;;2.40;;
4889;SDS011;2459;42.268;23.112;2022-07-01T10:45:42;6.43;;;2.70;;
4889;SDS011;2459;42.268;23.112;2022-07-01T10:48:19;4.05;;;2.58;;
4889;SDS011;2459;42.268;23.112;2022-07-01T10:50:47;5.13;;;2.33;;
4889;SDS011;2459;42.268;23.112;2022-07-01T10:53:15;6.57;;;2.80;;
4889;SDS011;2459;42.268;23.112;2022-07-01T10:55:44;5.05;;;2.47;;
4889;SDS011;2459;42.268;23.112;2022-07-01T10:58:10;4.22;;;2.83;;
4889;SDS011;2459;42.268;23.112;2022-07-01T11:00:39;5.45;;;2.53;;
4889;SDS011;2459;42.268;23.112;2022-07-01T11:03:10;2.35;;;2.15;;
4889;SDS011;2459;42.268;23.112;2022-07-01T11:05:37;5.57;;;2.25;;
4889;SDS011;2459;42.268;23.112;2022-07-01T11:08:06;4.85;;;2.90;;
4889;SDS011;2459;42.268;23.112;2022-07-01T11:10:33;8.02;;;2.13;;
4889;SDS011;2459;42.268;23.112;2022-07-01T11:12:59;3.22;;;1.90;;
4889;SDS011;2459;42.268;23.112;2022-07-01T11:15:26;2.70;;;2.35;;
4889;SDS011;2459;42.268;23.112;2022-07-01T11:17:54;3.83;;;2.55;;
4889;SDS011;2459;42.268;23.112;2022-07-01T11:20:21;5.32;;;3.20;;
4889;SDS011;2459;42.268;23.112;2022-07-01T11:22:49;3.92;;;2.35;;
4889;SDS011;2459;42.268;23.112;2022-07-01T11:25:18;4.45;;;2.58;;
4889;SDS011;2459;42.268;23.112;2022-07-01T11:27:45;2.92;;;2.72;;
4889;SDS011;2459;42.268;23.112;2022-07-01T11:30:12;3.40;;;3.10;;
4889;SDS011;2459;42.268;23.112;2022-07-01T11:32:39;4.30;;;2.88;;
4889;SDS011;2459;42.268;23.112;2022-07-01T11:35:07;6.57;;;3.30;;
4889;SDS011;2459;42.268;23.112;2022-07-01T11:38:03;5.30;;;3.35;;
4889;SDS011;2459;42.268;23.112;2022-07-01T11:40:49;4.25;;;3.10;;
4889;SDS011;2459;42.268;23.112;2022-07-01T11:43:19;6.82;;;3.33;;
4889;SDS011;2459;42.268;23.112;2022-07-01T11:45:46;4.50;;;4.10;;
4889;SDS011;2459;42.268;23.112;2022-07-01T11:48:13;6.63;;;3.58;;
4889;SDS011;2459;42.268;23.112;2022-07-01T11:50:53;3.80;;;3.50;;
4889;SDS011;2459;42.268;23.112;2022-07-01T11:53:20;4.53;;;4.10;;
4889;SDS011;2459;42.268;23.112;2022-07-01T11:55:46;6.78;;;3.90;;
4889;SDS011;2459;42.268;23.112;2022-07-01T11:58:14;4.47;;;3.53;;
4889;SDS011;2459;42.268;23.112;2022-07-01T12:00:41;3.47;;;3.17;;
4889;SDS011;2459;42.268;23.112;2022-07-01T12:03:08;3.85;;;3.45;;
4889;SDS011;2459;42.268;23.112;2022-07-01T12:05:36;3.88;;;3.58;;
4889;SDS011;2459;42.268;23.112;2022-07-01T12:08:03;5.13;;;2.78;;
4889;SDS011;2459;42.268;23.112;2022-07-01T12:10:29;3.45;;;3.22;;
4889;SDS011;2459;42.268;23.112;2022-07-01T12:12:56;8.30;;;4.10;;
4889;SDS011;2459;42.268;23.112;2022-07-01T12:15:24;4.38;;;3.28;;
4889;SDS011;2459;42.268;23.112;2022-07-01T12:17:51;2.92;;;2.60;;
4889;SDS011;2459;42.268;23.112;2022-07-01T12:20:30;2.70;;;2.50;;
4889;SDS011;2459;42.268;23.112;2022-07-01T12:23:09;13.57;;;4.38;;
4889;SDS011;2459;42.268;23.112;2022-07-01T12:25:36;2.45;;;2.30;;
4889;SDS011;2459;42.268;23.112;2022-07-01T12:28:04;6.72;;;2.67;;
4889;SDS011;2459;42.268;23.112;2022-07-01T12:30:32;2.70;;;2.50;;
4889;SDS011;2459;42.268;23.112;2022-07-01T12:33:07;2.80;;;2.60;;
4889;SDS011;2459;42.268;23.112;2022-07-01T12:35:34;5.03;;;4.10;;
4889;SDS011;2459;42.268;23.112;2022-07-01T12:38:14;5.43;;;3.58;;
4889;SDS011;2459;42.268;23.112;2022-07-01T12:40:40;3.30;;;3.10;;
4889;SDS011;2459;42.268;23.112;2022-07-01T12:43:21;3.00;;;2.80;;
4889;SDS011;2459;42.268;23.112;2022-07-01T12:45:49;3.30;;;2.17;;
4889;SDS011;2459;42.268;23.112;2022-07-01T12:48:16;8.32;;;2.97;;
4889;SDS011;2459;42.268;23.112;2022-07-01T12:50:42;2.50;;;2.30;;
4889;SDS011;2459;42.268;23.112;2022-07-01T12:53:11;8.68;;;3.67;;
4889;SDS011;2459;42.268;23.112;2022-07-01T12:55:38;4.30;;;3.85;;
4889;SDS011;2459;42.268;23.112;2022-07-01T12:58:06;3.17;;;2.97;;
4889;SDS011;2459;42.268;23.112;2022-07-01T13:00:33;3.67;;;2.83;;
4889;SDS011;2459;42.268;23.112;2022-07-01T13:03:02;3.10;;;2.90;;
4889;SDS011;2459;42.268;23.112;2022-07-01T13:05:29;8.77;;;2.90;;
4889;SDS011;2459;42.268;23.112;2022-07-01T13:07:56;3.65;;;2.92;;
4889;SDS011;2459;42.268;23.112;2022-07-01T13:10:23;4.10;;;3.28;;
4889;SDS011;2459;42.268;23.112;2022-07-01T13:12:50;8.85;;;3.28;;
4889;SDS011;2459;42.268;23.112;2022-07-01T13:15:17;4.00;;;3.38;;
4889;SDS011;2459;42.268;23.112;2022-07-01T13:17:46;2.55;;;2.35;;
4889;SDS011;2459;42.268;23.112;2022-07-01T13:20:14;3.40;;;3.00;;
4889;SDS011;2459;42.268;23.112;2022-07-01T13:22:41;3.33;;;3.03;;
4889;SDS011;2459;42.268;23.112;2022-07-01T13:25:08;6.13;;;2.80;;
4889;SDS011;2459;42.268;23.112;2022-07-01T13:27:35;5.78;;;3.05;;
4889;SDS011;2459;42.268;23.112;2022-07-01T13:30:03;3.45;;;3.15;;
4889;SDS011;2459;42.268;23.112;2022-07-01T13:32:29;2.95;;;2.75;;
4889;SDS011;2459;42.268;23.112;2022-07-01T13:34:56;14.23;;;3.00;;
4889;SDS011;2459;42.268;23.112;2022-07-01T13:37:24;4.53;;;2.50;;
4889;SDS011;2459;42.268;23.112;2022-07-01T13:39:50;17.33;;;7.07;;
4889;SDS011;2459;42.268;23.112;2022-07-01T13:42:17;4.20;;;3.50;;
4889;SDS011;2459;42.268;23.112;2022-07-01T13:44:43;8.20;;;4.70;;
4889;SDS011;2459;42.268;23.112;2022-07-01T13:47:10;6.13;;;4.30;;
4889;SDS011;2459;42.268;23.112;2022-07-01T13:49:39;7.18;;;3.70;;
4889;SDS011;2459;42.268;23.112;2022-07-01T13:52:07;10.25;;;5.18;;
4889;SDS011;2459;42.268;23.112;2022-07-01T13:54:35;4.28;;;3.88;;
4889;SDS011;2459;42.268;23.112;2022-07-01T13:57:02;3.45;;;3.25;;
4889;SDS011;2459;42.268;23.112;2022-07-01T13:59:28;8.70;;;3.70;;
4889;SDS011;2459;42.268;23.112;2022-07-01T14:01:55;7.32;;;3.78;;
4889;SDS011;2459;42.268;23.112;2022-07-01T14:04:21;5.60;;;3.65;;
4889;SDS011;2459;42.268;23.112;2022-07-01T14:06:48;3.78;;;3.10;;
4889;SDS011;2459;42.268;23.112;2022-07-01T14:09:14;9.18;;;3.45;;
4889;SDS011;2459;42.268;23.112;2022-07-01T14:11:42;15.68;;;3.67;;
4889;SDS011;2459;42.268;23.112;2022-07-01T14:14:10;10.25;;;3.95;;
4889;SDS011;2459;42.268;23.112;2022-07-01T14:16:36;16.48;;;4.03;;
4889;SDS011;2459;42.268;23.112;2022-07-01T14:19:03;4.38;;;3.20;;
4889;SDS011;2459;42.268;23.112;2022-07-01T14:21:29;6.93;;;4.43;;
4889;SDS011;2459;42.268;23.112;2022-07-01T14:23:56;11.20;;;4.80;;
4889;SDS011;2459;42.268;23.112;2022-07-01T14:26:24;12.73;;;4.88;;
4889;SDS011;2459;42.268;23.112;2022-07-01T14:28:52;9.68;;;4.68;;
4889;SDS011;2459;42.268;23.112;2022-07-01T14:31:18;3.97;;;3.58;;
4889;SDS011;2459;42.268;23.112;2022-07-01T14:33:45;7.70;;;4.80;;
4889;SDS011;2459;42.268;23.112;2022-07-01T14:36:12;7.93;;;4.28;;
4889;SDS011;2459;42.268;23.112;2022-07-01T14:38:39;8.32;;;4.60;;
4889;SDS011;2459;42.268;23.112;2022-07-01T14:41:05;4.90;;;4.50;;
4889;SDS011;2459;42.268;23.112;2022-07-01T14:43:32;6.05;;;4.72;;
4889;SDS011;2459;42.268;23.112;2022-07-01T14:46:01;9.68;;;5.38;;
4889;SDS011;2459;42.268;23.112;2022-07-01T14:48:33;12.10;;;5.05;;
4889;SDS011;2459;42.268;23.112;2022-07-01T14:51:00;10.55;;;5.47;;
4889;SDS011;2459;42.268;23.112;2022-07-01T14:53:27;7.00;;;5.13;;
4889;SDS011;2459;42.268;23.112;2022-07-01T14:55:53;12.98;;;5.10;;
4889;SDS011;2459;42.268;23.112;2022-07-01T14:58:20;6.05;;;4.75;;